sensor_id;sensor_type;location;lat;lon;timestamp;P1;durP1;ratioP1;P2;durP2;ratioP2
8407;SDS011;4241;48.452;9.216;2024-03-22T00:01:55;433.23;;;129.67;;
8407;SDS011;4241;48.452;9.216;2024-03-22T00:04:21;431.67;;;128.17;;
8407;SDS011;4241;48.452;9.216;2024-03-22T00:06:48;433.73;;;128.70;;
8407;SDS011;4241;48.452;9.216;2024-03-22T00:09:15;428.70;;;125.43;;
8407;SDS011;4241;48.452;9.216;2024-03-22T00:11:43;431.00;;;127.00;;
8407;SDS011;4241;48.452;9.216;2024-03-22T00:14:09;429.67;;;126.20;;
8407;SDS011;4241;48.452;9.216;2024-03-22T00:16:37;428.10;;;124.77;;
8407;SDS011;4241;48.452;9.216;2024-03-22T00:19:04;429.77;;;126.97;;
8407;SDS011;4241;48.452;9.216;2024-03-22T00:21:31;431.03;;;127.47;;
8407;SDS011;4241;48.452;9.216;2024-03-22T00:23:57;429.80;;;126.80;;
8407;SDS011;4241;48.452;9.216;2024-03-22T00:26:24;432.33;;;129.00;;
8407;SDS011;4241;48.452;9.216;2024-03-22T00:28:49;426.80;;;123.33;;
8407;SDS011;4241;48.452;9.216;2024-03-22T00:31:16;431.47;;;128.10;;
8407;SDS011;4241;48.452;9.216;2024-03-22T00:33:43;427.93;;;125.07;;
8407;SDS011;4241;48.452;9.216;2024-03-22T00:36:11;430.57;;;126.63;;
8407;SDS011;4241;48.452;9.216;2024-03-22T00:38:37;427.83;;;124.23;;
8407;SDS011;4241;48.452;9.216;2024-03-22T00:41:04;429.27;;;125.03;;
8407;SDS011;4241;48.452;9.216;2024-03-22T00:43:30;428.27;;;125.57;;
8407;SDS011;4241;48.452;9.216;2024-03-22T00:45:57;430.67;;;126.93;;
8407;SDS011;4241;48.452;9.216;2024-03-22T00:48:23;427.27;;;124.77;;
8407;SDS011;4241;48.452;9.216;2024-03-22T00:50:50;430.47;;;127.50;;
8407;SDS011;4241;48.452;9.216;2024-03-22T00:53:17;428.27;;;125.10;;
8407;SDS011;4241;48.452;9.216;2024-03-22T00:55:44;431.20;;;127.37;;
8407;SDS011;4241;48.452;9.216;2024-03-22T00:58:11;425.57;;;122.33;;
8407;SDS011;4241;48.452;9.216;2024-03-22T01:00:38;430.60;;;127.53;;
8407;SDS011;4241;48.452;9.216;2024-03-22T01:03:05;427.57;;;124.93;;
8407;SDS011;4241;48.452;9.216;2024-03-22T01:05:32;429.27;;;126.60;;
8407;SDS011;4241;48.452;9.216;2024-03-22T01:07:57;427.87;;;125.10;;
8407;SDS011;4241;48.452;9.216;2024-03-22T01:10:26;430.70;;;127.07;;
8407;SDS011;4241;48.452;9.216;2024-03-22T01:12:52;428.33;;;125.53;;
8407;SDS011;4241;48.452;9.216;2024-03-22T01:15:19;429.10;;;125.67;;
8407;SDS011;4241;48.452;9.216;2024-03-22T01:17:44;427.30;;;124.60;;
8407;SDS011;4241;48.452;9.216;2024-03-22T01:20:11;430.93;;;127.40;;
8407;SDS011;4241;48.452;9.216;2024-03-22T01:22:37;425.90;;;123.80;;
8407;SDS011;4241;48.452;9.216;2024-03-22T01:25:05;430.33;;;127.17;;
8407;SDS011;4241;48.452;9.216;2024-03-22T01:27:33;427.00;;;124.67;;
8407;SDS011;4241;48.452;9.216;2024-03-22T01:30:00;428.50;;;125.07;;
8407;SDS011;4241;48.452;9.216;2024-03-22T01:32:26;426.40;;;124.20;;
8407;SDS011;4241;48.452;9.216;2024-03-22T01:34:52;429.47;;;127.27;;
8407;SDS011;4241;48.452;9.216;2024-03-22T01:37:18;426.33;;;123.33;;
8407;SDS011;4241;48.452;9.216;2024-03-22T01:39:45;430.20;;;127.20;;
8407;SDS011;4241;48.452;9.216;2024-03-22T01:42:11;424.93;;;122.57;;
8407;SDS011;4241;48.452;9.216;2024-03-22T01:44:39;423.60;;;121.77;;
8407;SDS011;4241;48.452;9.216;2024-03-22T01:47:06;425.10;;;122.20;;
8407;SDS011;4241;48.452;9.216;2024-03-22T01:49:33;427.23;;;124.27;;
8407;SDS011;4241;48.452;9.216;2024-03-22T01:51:59;424.37;;;122.20;;
8407;SDS011;4241;48.452;9.216;2024-03-22T01:54:26;425.70;;;123.90;;
8407;SDS011;4241;48.452;9.216;2024-03-22T01:56:52;421.80;;;120.20;;
8407;SDS011;4241;48.452;9.216;2024-03-22T01:59:19;425.70;;;123.73;;
8407;SDS011;4241;48.452;9.216;2024-03-22T02:01:47;423.83;;;121.70;;
8407;SDS011;4241;48.452;9.216;2024-03-22T02:04:14;426.00;;;125.90;;
8407;SDS011;4241;48.452;9.216;2024-03-22T02:06:40;422.47;;;120.53;;
8407;SDS011;4241;48.452;9.216;2024-03-22T02:09:07;427.07;;;124.33;;
8407;SDS011;4241;48.452;9.216;2024-03-22T02:11:34;424.10;;;121.50;;
8407;SDS011;4241;48.452;9.216;2024-03-22T02:14:03;426.93;;;124.30;;
8407;SDS011;4241;48.452;9.216;2024-03-22T02:16:29;425.00;;;122.60;;
8407;SDS011;4241;48.452;9.216;2024-03-22T02:18:57;426.10;;;123.53;;
8407;SDS011;4241;48.452;9.216;2024-03-22T02:21:23;421.00;;;120.27;;
8407;SDS011;4241;48.452;9.216;2024-03-22T02:23:51;424.43;;;123.07;;
8407;SDS011;4241;48.452;9.216;2024-03-22T02:26:17;420.30;;;119.33;;
8407;SDS011;4241;48.452;9.216;2024-03-22T02:28:43;424.20;;;122.70;;
8407;SDS011;4241;48.452;9.216;2024-03-22T02:31:09;420.77;;;119.57;;
8407;SDS011;4241;48.452;9.216;2024-03-22T02:33:36;422.80;;;122.07;;
8407;SDS011;4241;48.452;9.216;2024-03-22T02:36:02;422.13;;;121.07;;
8407;SDS011;4241;48.452;9.216;2024-03-22T02:38:29;422.83;;;121.33;;
8407;SDS011;4241;48.452;9.216;2024-03-22T02:40:57;422.83;;;120.43;;
8407;SDS011;4241;48.452;9.216;2024-03-22T02:43:24;424.23;;;122.73;;
8407;SDS011;4241;48.452;9.216;2024-03-22T02:45:50;424.23;;;122.20;;
8407;SDS011;4241;48.452;9.216;2024-03-22T02:48:17;424.83;;;122.30;;
8407;SDS011;4241;48.452;9.216;2024-03-22T02:50:43;420.27;;;118.67;;
8407;SDS011;4241;48.452;9.216;2024-03-22T02:53:09;423.60;;;122.07;;
8407;SDS011;4241;48.452;9.216;2024-03-22T02:55:36;421.43;;;121.33;;
8407;SDS011;4241;48.452;9.216;2024-03-22T02:58:05;422.00;;;121.07;;
8407;SDS011;4241;48.452;9.216;2024-03-22T03:00:31;424.70;;;123.53;;
8407;SDS011;4241;48.452;9.216;2024-03-22T03:03:01;422.57;;;119.97;;
8407;SDS011;4241;48.452;9.216;2024-03-22T03:05:27;422.67;;;120.63;;
8407;SDS011;4241;48.452;9.216;2024-03-22T03:07:54;421.93;;;121.00;;
8407;SDS011;4241;48.452;9.216;2024-03-22T03:10:20;423.97;;;122.70;;
8407;SDS011;4241;48.452;9.216;2024-03-22T03:12:47;420.70;;;119.53;;
8407;SDS011;4241;48.452;9.216;2024-03-22T03:15:15;419.87;;;119.77;;
8407;SDS011;4241;48.452;9.216;2024-03-22T03:17:41;421.73;;;120.43;;
8407;SDS011;4241;48.452;9.216;2024-03-22T03:20:08;421.57;;;119.33;;
8407;SDS011;4241;48.452;9.216;2024-03-22T03:22:38;424.50;;;122.67;;
8407;SDS011;4241;48.452;9.216;2024-03-22T03:25:05;420.60;;;119.30;;
8407;SDS011;4241;48.452;9.216;2024-03-22T03:27:32;423.63;;;123.10;;
8407;SDS011;4241;48.452;9.216;2024-03-22T03:29:59;419.43;;;118.67;;
8407;SDS011;4241;48.452;9.216;2024-03-22T03:32:26;422.97;;;121.57;;
8407;SDS011;4241;48.452;9.216;2024-03-22T03:34:53;420.87;;;120.00;;
8407;SDS011;4241;48.452;9.216;2024-03-22T03:37:18;421.43;;;120.43;;
8407;SDS011;4241;48.452;9.216;2024-03-22T03:39:45;418.87;;;117.37;;
8407;SDS011;4241;48.452;9.216;2024-03-22T03:42:11;419.27;;;119.37;;
8407;SDS011;4241;48.452;9.216;2024-03-22T03:44:38;420.47;;;121.03;;
8407;SDS011;4241;48.452;9.216;2024-03-22T03:47:04;418.80;;;119.73;;
8407;SDS011;4241;48.452;9.216;2024-03-22T03:49:32;422.63;;;121.57;;
8407;SDS011;4241;48.452;9.216;2024-03-22T03:51:58;419.40;;;118.43;;
8407;SDS011;4241;48.452;9.216;2024-03-22T03:54:25;422.10;;;121.07;;
8407;SDS011;4241;48.452;9.216;2024-03-22T03:56:50;416.87;;;117.30;;
8407;SDS011;4241;48.452;9.216;2024-03-22T03:59:17;420.70;;;120.20;;
8407;SDS011;4241;48.452;9.216;2024-03-22T04:01:43;419.27;;;119.60;;
8407;SDS011;4241;48.452;9.216;2024-03-22T04:04:10;419.93;;;120.07;;
8407;SDS011;4241;48.452;9.216;2024-03-22T04:06:37;420.70;;;120.13;;
8407;SDS011;4241;48.452;9.216;2024-03-22T04:09:04;421.20;;;121.37;;
8407;SDS011;4241;48.452;9.216;2024-03-22T04:11:30;417.63;;;117.43;;
8407;SDS011;4241;48.452;9.216;2024-03-22T04:13:57;422.13;;;122.03;;
8407;SDS011;4241;48.452;9.216;2024-03-22T04:16:22;417.30;;;117.47;;
8407;SDS011;4241;48.452;9.216;2024-03-22T04:18:49;421.57;;;120.93;;
8407;SDS011;4241;48.452;9.216;2024-03-22T04:21:15;419.37;;;118.07;;
8407;SDS011;4241;48.452;9.216;2024-03-22T04:23:43;422.37;;;121.47;;
8407;SDS011;4241;48.452;9.216;2024-03-22T04:26:09;419.57;;;119.93;;
8407;SDS011;4241;48.452;9.216;2024-03-22T04:28:36;420.63;;;119.73;;
8407;SDS011;4241;48.452;9.216;2024-03-22T04:31:02;418.53;;;117.87;;
8407;SDS011;4241;48.452;9.216;2024-03-22T04:33:30;423.47;;;122.90;;
8407;SDS011;4241;48.452;9.216;2024-03-22T04:35:57;419.90;;;120.27;;
8407;SDS011;4241;48.452;9.216;2024-03-22T04:38:24;422.17;;;121.37;;
8407;SDS011;4241;48.452;9.216;2024-03-22T04:40:53;422.33;;;120.90;;
8407;SDS011;4241;48.452;9.216;2024-03-22T04:43:20;421.77;;;120.67;;
8407;SDS011;4241;48.452;9.216;2024-03-22T04:45:46;420.03;;;119.37;;
8407;SDS011;4241;48.452;9.216;2024-03-22T04:48:16;419.97;;;120.13;;
8407;SDS011;4241;48.452;9.216;2024-03-22T04:50:42;419.90;;;120.80;;
8407;SDS011;4241;48.452;9.216;2024-03-22T04:53:09;422.77;;;121.77;;
8407;SDS011;4241;48.452;9.216;2024-03-22T04:55:35;417.63;;;117.13;;
8407;SDS011;4241;48.452;9.216;2024-03-22T04:58:04;417.97;;;118.17;;
8407;SDS011;4241;48.452;9.216;2024-03-22T05:00:30;425.93;;;125.83;;
8407;SDS011;4241;48.452;9.216;2024-03-22T05:02:56;424.57;;;124.03;;
8407;SDS011;4241;48.452;9.216;2024-03-22T05:05:22;420.37;;;119.90;;
8407;SDS011;4241;48.452;9.216;2024-03-22T05:07:49;422.57;;;122.97;;
8407;SDS011;4241;48.452;9.216;2024-03-22T05:10:15;420.47;;;120.23;;
8407;SDS011;4241;48.452;9.216;2024-03-22T05:12:42;419.97;;;120.20;;
8407;SDS011;4241;48.452;9.216;2024-03-22T05:15:09;416.57;;;117.33;;
8407;SDS011;4241;48.452;9.216;2024-03-22T05:17:36;418.83;;;119.27;;
8407;SDS011;4241;48.452;9.216;2024-03-22T05:20:02;418.97;;;120.03;;
8407;SDS011;4241;48.452;9.216;2024-03-22T05:22:30;421.30;;;121.67;;
8407;SDS011;4241;48.452;9.216;2024-03-22T05:24:56;418.83;;;119.07;;
8407;SDS011;4241;48.452;9.216;2024-03-22T05:27:23;420.53;;;119.47;;
8407;SDS011;4241;48.452;9.216;2024-03-22T05:29:49;417.63;;;118.30;;
8407;SDS011;4241;48.452;9.216;2024-03-22T05:32:17;422.13;;;121.60;;
8407;SDS011;4241;48.452;9.216;2024-03-22T05:34:43;417.23;;;118.20;;
8407;SDS011;4241;48.452;9.216;2024-03-22T05:37:10;423.50;;;122.43;;
8407;SDS011;4241;48.452;9.216;2024-03-22T05:39:36;419.07;;;119.00;;
8407;SDS011;4241;48.452;9.216;2024-03-22T05:42:03;422.07;;;122.50;;
8407;SDS011;4241;48.452;9.216;2024-03-22T05:44:29;419.00;;;119.00;;
8407;SDS011;4241;48.452;9.216;2024-03-22T05:46:55;421.03;;;119.73;;
8407;SDS011;4241;48.452;9.216;2024-03-22T05:49:23;418.90;;;119.33;;
8407;SDS011;4241;48.452;9.216;2024-03-22T05:51:49;419.63;;;120.10;;
8407;SDS011;4241;48.452;9.216;2024-03-22T05:54:15;419.40;;;119.77;;
8407;SDS011;4241;48.452;9.216;2024-03-22T05:56:42;421.90;;;121.43;;
8407;SDS011;4241;48.452;9.216;2024-03-22T05:59:08;414.60;;;115.40;;
8407;SDS011;4241;48.452;9.216;2024-03-22T06:01:35;420.40;;;120.03;;
8407;SDS011;4241;48.452;9.216;2024-03-22T06:04:01;422.30;;;121.03;;
8407;SDS011;4241;48.452;9.216;2024-03-22T06:06:29;425.23;;;123.87;;
8407;SDS011;4241;48.452;9.216;2024-03-22T06:08:55;426.37;;;126.53;;
8407;SDS011;4241;48.452;9.216;2024-03-22T06:11:25;421.27;;;120.17;;
8407;SDS011;4241;48.452;9.216;2024-03-22T06:13:51;420.27;;;119.70;;
8407;SDS011;4241;48.452;9.216;2024-03-22T06:16:17;420.73;;;120.20;;
8407;SDS011;4241;48.452;9.216;2024-03-22T06:18:43;419.53;;;119.33;;
8407;SDS011;4241;48.452;9.216;2024-03-22T06:21:10;423.30;;;121.97;;
8407;SDS011;4241;48.452;9.216;2024-03-22T06:23:37;418.97;;;119.20;;
8407;SDS011;4241;48.452;9.216;2024-03-22T06:26:04;420.20;;;119.67;;
8407;SDS011;4241;48.452;9.216;2024-03-22T06:28:30;421.13;;;121.07;;
8407;SDS011;4241;48.452;9.216;2024-03-22T06:30:57;421.60;;;120.60;;
8407;SDS011;4241;48.452;9.216;2024-03-22T06:33:22;421.97;;;122.13;;
8407;SDS011;4241;48.452;9.216;2024-03-22T06:35:49;420.27;;;119.87;;
8407;SDS011;4241;48.452;9.216;2024-03-22T06:38:15;419.60;;;120.40;;
8407;SDS011;4241;48.452;9.216;2024-03-22T06:40:44;420.80;;;120.17;;
8407;SDS011;4241;48.452;9.216;2024-03-22T06:43:10;418.53;;;118.97;;
8407;SDS011;4241;48.452;9.216;2024-03-22T06:45:37;421.60;;;120.57;;
8407;SDS011;4241;48.452;9.216;2024-03-22T06:48:03;421.60;;;122.40;;
8407;SDS011;4241;48.452;9.216;2024-03-22T06:50:30;430.57;;;131.00;;
8407;SDS011;4241;48.452;9.216;2024-03-22T06:52:56;423.93;;;123.20;;
8407;SDS011;4241;48.452;9.216;2024-03-22T06:55:22;423.20;;;121.83;;
8407;SDS011;4241;48.452;9.216;2024-03-22T06:57:50;426.20;;;123.80;;
8407;SDS011;4241;48.452;9.216;2024-03-22T07:00:17;425.63;;;124.37;;
8407;SDS011;4241;48.452;9.216;2024-03-22T07:02:44;425.63;;;123.87;;
8407;SDS011;4241;48.452;9.216;2024-03-22T07:05:11;423.73;;;122.23;;
8407;SDS011;4241;48.452;9.216;2024-03-22T07:07:37;426.73;;;124.30;;
8407;SDS011;4241;48.452;9.216;2024-03-22T07:10:05;424.70;;;122.50;;
8407;SDS011;4241;48.452;9.216;2024-03-22T07:12:31;428.83;;;127.13;;
8407;SDS011;4241;48.452;9.216;2024-03-22T07:15:00;427.97;;;126.37;;
8407;SDS011;4241;48.452;9.216;2024-03-22T07:17:27;436.37;;;132.30;;
8407;SDS011;4241;48.452;9.216;2024-03-22T07:19:54;427.80;;;125.77;;
8407;SDS011;4241;48.452;9.216;2024-03-22T07:22:21;430.87;;;127.93;;
8407;SDS011;4241;48.452;9.216;2024-03-22T07:24:47;426.63;;;124.60;;
8407;SDS011;4241;48.452;9.216;2024-03-22T07:27:14;433.73;;;131.33;;
8407;SDS011;4241;48.452;9.216;2024-03-22T07:29:41;432.93;;;130.20;;
8407;SDS011;4241;48.452;9.216;2024-03-22T07:32:08;435.03;;;131.80;;
8407;SDS011;4241;48.452;9.216;2024-03-22T07:34:35;429.43;;;126.67;;
8407;SDS011;4241;48.452;9.216;2024-03-22T07:37:01;434.07;;;131.87;;
8407;SDS011;4241;48.452;9.216;2024-03-22T07:39:29;431.93;;;129.87;;
8407;SDS011;4241;48.452;9.216;2024-03-22T07:41:55;435.97;;;133.03;;
8407;SDS011;4241;48.452;9.216;2024-03-22T07:44:21;432.53;;;129.13;;
8407;SDS011;4241;48.452;9.216;2024-03-22T07:46:49;434.10;;;131.40;;
8407;SDS011;4241;48.452;9.216;2024-03-22T07:49:17;433.67;;;131.57;;
8407;SDS011;4241;48.452;9.216;2024-03-22T07:51:43;435.57;;;133.03;;
8407;SDS011;4241;48.452;9.216;2024-03-22T07:54:10;435.90;;;132.40;;
8407;SDS011;4241;48.452;9.216;2024-03-22T07:56:36;441.17;;;137.30;;
8407;SDS011;4241;48.452;9.216;2024-03-22T07:59:03;440.23;;;138.90;;
8407;SDS011;4241;48.452;9.216;2024-03-22T08:01:29;440.63;;;137.20;;
8407;SDS011;4241;48.452;9.216;2024-03-22T08:03:56;440.00;;;137.93;;
8407;SDS011;4241;48.452;9.216;2024-03-22T08:06:23;442.87;;;140.13;;
8407;SDS011;4241;48.452;9.216;2024-03-22T08:08:50;441.63;;;139.73;;
8407;SDS011;4241;48.452;9.216;2024-03-22T08:11:16;445.23;;;142.23;;
8407;SDS011;4241;48.452;9.216;2024-03-22T08:13:43;442.00;;;140.97;;
8407;SDS011;4241;48.452;9.216;2024-03-22T08:16:09;443.70;;;140.57;;
8407;SDS011;4241;48.452;9.216;2024-03-22T08:18:36;444.90;;;143.80;;
8407;SDS011;4241;48.452;9.216;2024-03-22T08:21:02;448.83;;;149.10;;
8407;SDS011;4241;48.452;9.216;2024-03-22T08:23:31;445.57;;;145.00;;
8407;SDS011;4241;48.452;9.216;2024-03-22T08:25:56;449.03;;;146.80;;
8407;SDS011;4241;48.452;9.216;2024-03-22T08:28:23;448.70;;;149.57;;
8407;SDS011;4241;48.452;9.216;2024-03-22T08:30:49;452.60;;;152.70;;
8407;SDS011;4241;48.452;9.216;2024-03-22T08:33:16;450.83;;;153.93;;
8407;SDS011;4241;48.452;9.216;2024-03-22T08:35:43;454.63;;;155.57;;
8407;SDS011;4241;48.452;9.216;2024-03-22T08:38:10;450.70;;;152.70;;
8407;SDS011;4241;48.452;9.216;2024-03-22T08:40:37;452.93;;;154.20;;
8407;SDS011;4241;48.452;9.216;2024-03-22T08:43:05;446.80;;;147.43;;
8407;SDS011;4241;48.452;9.216;2024-03-22T08:45:32;452.00;;;151.70;;
8407;SDS011;4241;48.452;9.216;2024-03-22T08:47:59;448.70;;;149.23;;
8407;SDS011;4241;48.452;9.216;2024-03-22T08:50:25;457.80;;;160.13;;
8407;SDS011;4241;48.452;9.216;2024-03-22T08:52:52;449.30;;;151.20;;
8407;SDS011;4241;48.452;9.216;2024-03-22T08:55:18;450.67;;;152.40;;
8407;SDS011;4241;48.452;9.216;2024-03-22T08:57:46;449.77;;;152.10;;
8407;SDS011;4241;48.452;9.216;2024-03-22T09:00:12;450.73;;;152.23;;
8407;SDS011;4241;48.452;9.216;2024-03-22T09:02:39;452.23;;;154.17;;
8407;SDS011;4241;48.452;9.216;2024-03-22T09:05:05;453.00;;;154.17;;
8407;SDS011;4241;48.452;9.216;2024-03-22T09:07:33;452.23;;;153.67;;
8407;SDS011;4241;48.452;9.216;2024-03-22T09:09:59;454.93;;;158.97;;
8407;SDS011;4241;48.452;9.216;2024-03-22T09:12:26;453.30;;;158.37;;
8407;SDS011;4241;48.452;9.216;2024-03-22T09:14:53;454.23;;;156.47;;
8407;SDS011;4241;48.452;9.216;2024-03-22T09:17:20;452.07;;;155.60;;
8407;SDS011;4241;48.452;9.216;2024-03-22T09:19:46;456.17;;;161.97;;
8407;SDS011;4241;48.452;9.216;2024-03-22T09:22:13;451.30;;;154.70;;
8407;SDS011;4241;48.452;9.216;2024-03-22T09:24:40;453.17;;;158.53;;
8407;SDS011;4241;48.452;9.216;2024-03-22T09:27:07;453.90;;;158.53;;
8407;SDS011;4241;48.452;9.216;2024-03-22T09:29:35;453.03;;;159.97;;
8407;SDS011;4241;48.452;9.216;2024-03-22T09:32:03;450.23;;;156.03;;
8407;SDS011;4241;48.452;9.216;2024-03-22T09:34:30;453.40;;;157.53;;
8407;SDS011;4241;48.452;9.216;2024-03-22T09:36:57;451.67;;;155.60;;
8407;SDS011;4241;48.452;9.216;2024-03-22T09:39:23;454.17;;;160.00;;
8407;SDS011;4241;48.452;9.216;2024-03-22T09:41:53;454.10;;;160.33;;
8407;SDS011;4241;48.452;9.216;2024-03-22T09:44:22;458.17;;;167.07;;
8407;SDS011;4241;48.452;9.216;2024-03-22T09:46:53;452.53;;;159.30;;
8407;SDS011;4241;48.452;9.216;2024-03-22T09:49:21;456.27;;;163.30;;
8407;SDS011;4241;48.452;9.216;2024-03-22T09:51:48;455.63;;;165.03;;
8407;SDS011;4241;48.452;9.216;2024-03-22T09:54:17;459.87;;;170.40;;
8407;SDS011;4241;48.452;9.216;2024-03-22T09:56:43;454.63;;;166.63;;
8407;SDS011;4241;48.452;9.216;2024-03-22T09:59:13;461.27;;;175.10;;
8407;SDS011;4241;48.452;9.216;2024-03-22T10:01:40;459.67;;;172.33;;
8407;SDS011;4241;48.452;9.216;2024-03-22T10:04:08;463.17;;;179.17;;
8407;SDS011;4241;48.452;9.216;2024-03-22T10:06:36;463.20;;;175.63;;
8407;SDS011;4241;48.452;9.216;2024-03-22T10:09:02;462.40;;;175.10;;
8407;SDS011;4241;48.452;9.216;2024-03-22T10:11:31;456.73;;;165.00;;
8407;SDS011;4241;48.452;9.216;2024-03-22T10:13:56;459.73;;;167.13;;
8407;SDS011;4241;48.452;9.216;2024-03-22T10:16:23;457.00;;;166.77;;
8407;SDS011;4241;48.452;9.216;2024-03-22T10:18:49;454.87;;;161.73;;
8407;SDS011;4241;48.452;9.216;2024-03-22T10:21:17;456.27;;;165.33;;
8407;SDS011;4241;48.452;9.216;2024-03-22T10:23:45;457.40;;;164.60;;
8407;SDS011;4241;48.452;9.216;2024-03-22T10:26:13;457.67;;;168.83;;
8407;SDS011;4241;48.452;9.216;2024-03-22T10:28:43;461.17;;;171.83;;
8407;SDS011;4241;48.452;9.216;2024-03-22T10:31:11;460.63;;;176.83;;
8407;SDS011;4241;48.452;9.216;2024-03-22T10:33:37;460.77;;;177.10;;
8407;SDS011;4241;48.452;9.216;2024-03-22T10:36:06;460.53;;;171.93;;
8407;SDS011;4241;48.452;9.216;2024-03-22T10:38:32;460.27;;;170.20;;
8407;SDS011;4241;48.452;9.216;2024-03-22T10:41:03;457.87;;;165.57;;
8407;SDS011;4241;48.452;9.216;2024-03-22T10:43:30;456.63;;;165.20;;
8407;SDS011;4241;48.452;9.216;2024-03-22T10:46:01;456.07;;;162.70;;
8407;SDS011;4241;48.452;9.216;2024-03-22T10:48:29;458.63;;;168.00;;
8407;SDS011;4241;48.452;9.216;2024-03-22T10:50:59;461.57;;;172.10;;
8407;SDS011;4241;48.452;9.216;2024-03-22T10:53:26;463.53;;;177.60;;
8407;SDS011;4241;48.452;9.216;2024-03-22T10:55:54;469.47;;;189.73;;
8407;SDS011;4241;48.452;9.216;2024-03-22T10:58:26;466.77;;;187.67;;
8407;SDS011;4241;48.452;9.216;2024-03-22T11:00:53;471.23;;;187.77;;
8407;SDS011;4241;48.452;9.216;2024-03-22T11:03:22;466.03;;;184.60;;
8407;SDS011;4241;48.452;9.216;2024-03-22T11:05:50;469.23;;;189.43;;
8407;SDS011;4241;48.452;9.216;2024-03-22T11:08:23;466.63;;;184.23;;
8407;SDS011;4241;48.452;9.216;2024-03-22T11:10:50;470.20;;;190.27;;
8407;SDS011;4241;48.452;9.216;2024-03-22T11:13:16;467.67;;;186.07;;
8407;SDS011;4241;48.452;9.216;2024-03-22T11:15:45;467.93;;;192.33;;
8407;SDS011;4241;48.452;9.216;2024-03-22T11:18:12;464.97;;;181.63;;
8407;SDS011;4241;48.452;9.216;2024-03-22T11:20:40;470.47;;;192.50;;
8407;SDS011;4241;48.452;9.216;2024-03-22T11:23:07;466.50;;;185.63;;
8407;SDS011;4241;48.452;9.216;2024-03-22T11:25:35;470.60;;;190.07;;
8407;SDS011;4241;48.452;9.216;2024-03-22T11:28:01;465.17;;;185.20;;
8407;SDS011;4241;48.452;9.216;2024-03-22T11:30:27;479.10;;;198.97;;
8407;SDS011;4241;48.452;9.216;2024-03-22T11:32:55;468.20;;;187.03;;
8407;SDS011;4241;48.452;9.216;2024-03-22T11:35:22;469.83;;;188.90;;
8407;SDS011;4241;48.452;9.216;2024-03-22T11:37:49;467.77;;;187.23;;
8407;SDS011;4241;48.452;9.216;2024-03-22T11:40:16;469.70;;;189.63;;
8407;SDS011;4241;48.452;9.216;2024-03-22T11:42:42;465.93;;;188.40;;
8407;SDS011;4241;48.452;9.216;2024-03-22T11:45:13;467.70;;;186.37;;
8407;SDS011;4241;48.452;9.216;2024-03-22T11:47:41;465.83;;;185.83;;
8407;SDS011;4241;48.452;9.216;2024-03-22T11:50:09;468.33;;;189.37;;
8407;SDS011;4241;48.452;9.216;2024-03-22T11:52:39;470.27;;;195.43;;
8407;SDS011;4241;48.452;9.216;2024-03-22T11:55:06;472.40;;;200.73;;
8407;SDS011;4241;48.452;9.216;2024-03-22T11:57:33;473.37;;;204.10;;
8407;SDS011;4241;48.452;9.216;2024-03-22T12:00:00;472.87;;;198.50;;
8407;SDS011;4241;48.452;9.216;2024-03-22T12:02:28;471.20;;;196.87;;
8407;SDS011;4241;48.452;9.216;2024-03-22T12:04:57;467.93;;;197.17;;
8407;SDS011;4241;48.452;9.216;2024-03-22T12:07:24;470.03;;;198.57;;
8407;SDS011;4241;48.452;9.216;2024-03-22T12:09:51;469.30;;;198.67;;
8407;SDS011;4241;48.452;9.216;2024-03-22T12:12:17;471.43;;;199.17;;
8407;SDS011;4241;48.452;9.216;2024-03-22T12:14:47;471.67;;;198.73;;
8407;SDS011;4241;48.452;9.216;2024-03-22T12:17:13;468.93;;;192.83;;
8407;SDS011;4241;48.452;9.216;2024-03-22T12:19:40;469.10;;;192.10;;
8407;SDS011;4241;48.452;9.216;2024-03-22T12:22:06;471.87;;;196.67;;
8407;SDS011;4241;48.452;9.216;2024-03-22T12:24:35;468.13;;;188.37;;
8407;SDS011;4241;48.452;9.216;2024-03-22T12:27:01;467.53;;;185.97;;
8407;SDS011;4241;48.452;9.216;2024-03-22T12:29:28;467.77;;;184.77;;
8407;SDS011;4241;48.452;9.216;2024-03-22T12:31:57;466.87;;;184.57;;
8407;SDS011;4241;48.452;9.216;2024-03-22T12:34:26;467.37;;;187.43;;
8407;SDS011;4241;48.452;9.216;2024-03-22T12:36:51;466.40;;;184.67;;
8407;SDS011;4241;48.452;9.216;2024-03-22T12:39:18;466.10;;;183.57;;
8407;SDS011;4241;48.452;9.216;2024-03-22T12:41:45;463.57;;;184.97;;
8407;SDS011;4241;48.452;9.216;2024-03-22T12:44:13;470.43;;;190.83;;
8407;SDS011;4241;48.452;9.216;2024-03-22T12:46:38;466.43;;;187.77;;
8407;SDS011;4241;48.452;9.216;2024-03-22T12:49:07;467.73;;;190.60;;
8407;SDS011;4241;48.452;9.216;2024-03-22T12:51:33;468.93;;;195.07;;
8407;SDS011;4241;48.452;9.216;2024-03-22T12:54:01;470.60;;;199.90;;
8407;SDS011;4241;48.452;9.216;2024-03-22T12:56:28;469.93;;;196.30;;
8407;SDS011;4241;48.452;9.216;2024-03-22T12:58:56;468.63;;;193.97;;
8407;SDS011;4241;48.452;9.216;2024-03-22T13:01:22;468.13;;;191.37;;
8407;SDS011;4241;48.452;9.216;2024-03-22T13:03:48;468.07;;;194.77;;
8407;SDS011;4241;48.452;9.216;2024-03-22T13:06:14;466.97;;;192.23;;
8407;SDS011;4241;48.452;9.216;2024-03-22T13:08:41;469.67;;;194.10;;
8407;SDS011;4241;48.452;9.216;2024-03-22T13:11:07;470.30;;;194.17;;
8407;SDS011;4241;48.452;9.216;2024-03-22T13:13:34;471.37;;;196.07;;
8407;SDS011;4241;48.452;9.216;2024-03-22T13:16:01;464.77;;;186.97;;
8407;SDS011;4241;48.452;9.216;2024-03-22T13:18:29;469.10;;;192.07;;
8407;SDS011;4241;48.452;9.216;2024-03-22T13:20:55;469.13;;;194.53;;
8407;SDS011;4241;48.452;9.216;2024-03-22T13:23:21;466.87;;;186.27;;
8407;SDS011;4241;48.452;9.216;2024-03-22T13:25:47;467.07;;;190.87;;
8407;SDS011;4241;48.452;9.216;2024-03-22T13:28:14;468.97;;;191.00;;
8407;SDS011;4241;48.452;9.216;2024-03-22T13:30:45;466.37;;;183.43;;
8407;SDS011;4241;48.452;9.216;2024-03-22T13:33:13;469.57;;;191.73;;
8407;SDS011;4241;48.452;9.216;2024-03-22T13:35:39;467.43;;;191.40;;
8407;SDS011;4241;48.452;9.216;2024-03-22T13:38:06;470.40;;;194.57;;
8407;SDS011;4241;48.452;9.216;2024-03-22T13:40:38;467.93;;;188.90;;
8407;SDS011;4241;48.452;9.216;2024-03-22T13:43:06;466.10;;;188.83;;
8407;SDS011;4241;48.452;9.216;2024-03-22T13:45:32;469.20;;;191.40;;
8407;SDS011;4241;48.452;9.216;2024-03-22T13:47:59;466.70;;;189.47;;
8407;SDS011;4241;48.452;9.216;2024-03-22T13:50:26;471.00;;;190.80;;
8407;SDS011;4241;48.452;9.216;2024-03-22T13:52:53;467.73;;;189.87;;
8407;SDS011;4241;48.452;9.216;2024-03-22T13:55:18;464.90;;;184.30;;
8407;SDS011;4241;48.452;9.216;2024-03-22T13:57:45;465.77;;;185.27;;
8407;SDS011;4241;48.452;9.216;2024-03-22T14:00:11;465.83;;;185.80;;
8407;SDS011;4241;48.452;9.216;2024-03-22T14:02:39;470.33;;;197.00;;
8407;SDS011;4241;48.452;9.216;2024-03-22T14:05:05;465.80;;;188.23;;
8407;SDS011;4241;48.452;9.216;2024-03-22T14:07:35;469.90;;;195.70;;
8407;SDS011;4241;48.452;9.216;2024-03-22T14:10:00;466.30;;;188.60;;
8407;SDS011;4241;48.452;9.216;2024-03-22T14:12:28;469.80;;;194.67;;
8407;SDS011;4241;48.452;9.216;2024-03-22T14:14:53;468.87;;;195.03;;
8407;SDS011;4241;48.452;9.216;2024-03-22T14:17:20;471.63;;;194.07;;
8407;SDS011;4241;48.452;9.216;2024-03-22T14:19:46;467.90;;;191.37;;